createdAt,value
2018-03-19T00:01:16.675Z,10.23
2018-03-19T00:03:44.375Z,12.55
2018-03-19T00:06:11.874Z,6.85
2018-03-19T00:08:40.210Z,11.07
2018-03-19T00:11:07.848Z,11.45
2018-03-19T00:13:35.387Z,9.75
2018-03-19T00:16:02.905Z,7.32
2018-03-19T00:18:30.389Z,17.85
2018-03-19T00:20:58.654Z,11.38
2018-03-19T00:23:26.223Z,8.18
2018-03-19T00:25:54.506Z,9.05
2018-03-19T00:28:22.828Z,13.90
2018-03-19T00:30:50.342Z,12.40
2018-03-19T00:33:18.590Z,12.23
2018-03-19T00:35:46.078Z,9.73
2018-03-19T00:38:14.345Z,7.32
2018-03-19T00:40:42.593Z,9.30
2018-03-19T00:43:10.166Z,7.07
2018-03-19T00:45:37.656Z,6.72
2018-03-19T00:48:05.142Z,8.23
2018-03-19T00:50:32.647Z,6.90
2018-03-19T00:53:00.163Z,7.03
2018-03-19T00:58:01.695Z,8.90
2018-03-19T01:00:29.186Z,9.90
2018-03-19T01:02:56.733Z,7.57
2018-03-19T01:05:24.324Z,12.37
2018-03-19T01:07:51.849Z,8.43
2018-03-19T01:10:19.378Z,11.98
2018-03-19T01:12:47.648Z,9.38
2018-03-19T01:15:15.122Z,8.48
2018-03-19T01:17:43.381Z,8.18
2018-03-19T01:20:10.942Z,7.62
2018-03-19T01:22:39.232Z,6.82
2018-03-19T01:25:06.759Z,9.73
2018-03-19T01:27:34.481Z,7.35
2018-03-19T01:30:02.061Z,9.32
2018-03-19T01:32:29.651Z,11.27
2018-03-19T01:34:57.226Z,9.63
2018-03-19T01:37:24.819Z,10.85
2018-03-19T01:39:52.373Z,8.88
2018-03-19T01:42:19.961Z,9.25
2018-03-19T01:44:47.494Z,13.13
2018-03-19T01:47:15.039Z,6.97
2018-03-19T01:49:42.617Z,11.30
2018-03-19T01:52:10.180Z,12.35
2018-03-19T01:54:37.810Z,9.98
2018-03-19T01:57:06.165Z,7.72
2018-03-19T01:59:33.817Z,8.60
2018-03-19T02:02:01.402Z,13.77
2018-03-19T02:04:29.662Z,8.60
2018-03-19T02:06:57.150Z,6.72
2018-03-19T02:09:24.634Z,10.07
2018-03-19T02:11:52.199Z,7.53
2018-03-19T02:14:19.694Z,8.68
2018-03-19T02:16:47.349Z,7.65
2018-03-19T02:19:14.949Z,11.45
2018-03-19T02:21:42.527Z,8.20
2018-03-19T02:24:10.138Z,12.45
2018-03-19T02:26:37.658Z,7.07
2018-03-19T02:29:05.132Z,7.35
2018-03-19T02:31:32.781Z,8.10
2018-03-19T02:34:00.324Z,10.13
2018-03-19T02:36:27.960Z,10.93
2018-03-19T02:38:55.492Z,7.55
2018-03-19T02:41:23.054Z,8.30
2018-03-19T02:43:50.693Z,10.85
2018-03-19T02:46:18.198Z,10.65
2018-03-19T02:48:46.476Z,7.90
2018-03-19T02:51:14.858Z,9.18
2018-03-19T02:53:42.414Z,9.27
2018-03-19T02:56:10.715Z,6.40
2018-03-19T02:58:38.202Z,8.20
2018-03-19T03:01:05.682Z,6.50
2018-03-19T03:03:33.180Z,9.43
2018-03-19T03:06:00.665Z,7.60
2018-03-19T03:08:28.420Z,8.60
2018-03-19T03:10:56.023Z,9.18
2018-03-19T03:13:24.455Z,7.90
2018-03-19T03:15:51.988Z,5.90
2018-03-19T03:18:20.250Z,9.65
2018-03-19T03:20:47.734Z,7.62
2018-03-19T03:23:15.214Z,9.82
2018-03-19T03:25:42.722Z,7.05
2018-03-19T03:28:10.207Z,8.82
2018-03-19T03:30:37.697Z,6.47
2018-03-19T03:33:05.185Z,9.85
2018-03-19T03:35:32.686Z,11.98
2018-03-19T03:38:00.166Z,8.30
2018-03-19T03:40:27.658Z,7.37
2018-03-19T03:42:55.153Z,10.25
2018-03-19T03:45:23.409Z,6.45
2018-03-19T03:47:50.886Z,5.43
2018-03-19T03:50:19.134Z,10.60
2018-03-19T03:52:46.920Z,7.93
2018-03-19T03:55:15.190Z,8.02
2018-03-19T03:57:44.082Z,7.70
2018-03-19T04:00:12.446Z,5.95
2018-03-19T04:02:40.795Z,6.93
2018-03-19T04:05:08.443Z,7.78
2018-03-19T04:07:36.212Z,8.45
2018-03-19T04:10:03.751Z,7.55
2018-03-19T04:12:31.428Z,8.93
2018-03-19T04:14:59.037Z,11.55
2018-03-19T04:17:26.514Z,8.35
2018-03-19T04:19:54.763Z,5.85
2018-03-19T04:22:22.359Z,7.15
2018-03-19T04:24:49.962Z,8.68
2018-03-19T04:27:17.535Z,5.32
2018-03-19T04:29:46.099Z,9.30
2018-03-19T04:32:13.648Z,6.62
2018-03-19T04:34:41.410Z,9.38
2018-03-19T04:37:08.993Z,11.93
2018-03-19T04:39:36.564Z,7.20
2018-03-19T04:42:04.147Z,12.32
2018-03-19T04:44:32.683Z,11.07
2018-03-19T04:47:00.995Z,8.90
2018-03-19T04:49:28.575Z,8.60
2018-03-19T04:51:56.889Z,7.30
2018-03-19T04:54:24.401Z,9.02
2018-03-19T04:56:52.112Z,7.30
2018-03-19T04:59:19.693Z,5.95
2018-03-19T05:01:47.243Z,11.15
2018-03-19T05:04:14.820Z,9.30
2018-03-19T05:06:42.351Z,7.75
2018-03-19T05:09:09.838Z,12.88
2018-03-19T05:11:37.323Z,6.03
2018-03-19T05:14:04.814Z,8.07
2018-03-19T05:16:32.376Z,8.52
2018-03-19T05:18:59.890Z,7.20
2018-03-19T05:21:27.369Z,8.48
2018-03-19T05:23:55.630Z,6.65
2018-03-19T05:26:23.911Z,10.02
2018-03-19T05:28:51.395Z,8.95
2018-03-19T05:31:18.941Z,7.50
2018-03-19T05:33:47.226Z,7.03
2018-03-19T05:36:15.470Z,7.97
2018-03-19T05:41:16.934Z,10.60
2018-03-19T05:43:44.422Z,12.30
2018-03-19T05:46:12.666Z,7.20
2018-03-19T05:48:40.498Z,8.52
2018-03-19T05:51:07.978Z,8.30
2018-03-19T05:53:35.458Z,10.75
2018-03-19T05:56:03.190Z,10.23
2018-03-19T05:58:30.702Z,11.20
2018-03-19T06:00:58.954Z,10.20
2018-03-19T06:03:26.471Z,7.03
2018-03-19T06:05:53.978Z,10.85
2018-03-19T06:08:22.317Z,10.68
2018-03-19T06:10:49.877Z,6.75
2018-03-19T06:13:17.397Z,9.52
2018-03-19T06:15:45.726Z,9.25
2018-03-19T06:18:13.231Z,8.02
2018-03-19T06:20:41.543Z,10.43
2018-03-19T06:23:09.037Z,10.77
2018-03-19T06:25:36.624Z,9.77
2018-03-19T06:28:05.044Z,8.77
2018-03-19T06:30:32.610Z,9.05
2018-03-19T06:33:00.190Z,8.70
2018-03-19T06:35:27.734Z,11.70
2018-03-19T06:37:55.290Z,10.48
2018-03-19T06:40:22.779Z,7.50
2018-03-19T06:42:50.258Z,6.62
2018-03-19T06:45:18.580Z,10.48
2018-03-19T06:47:46.141Z,10.02
2018-03-19T06:50:13.714Z,9.18
2018-03-19T06:52:41.357Z,7.90
2018-03-19T06:55:09.282Z,8.30
2018-03-19T06:57:37.595Z,8.48
2018-03-19T07:00:05.192Z,9.80
2018-03-19T07:02:33.524Z,8.75
2018-03-19T07:05:01.155Z,9.27
2018-03-19T07:07:28.761Z,10.68
2018-03-19T07:09:56.344Z,11.45
2018-03-19T07:12:24.023Z,8.50
2018-03-19T07:14:51.574Z,8.60
2018-03-19T07:17:19.199Z,8.93
2018-03-19T07:19:47.603Z,10.43
2018-03-19T07:22:15.206Z,11.43
2018-03-19T07:24:43.491Z,10.80
2018-03-19T07:27:11.762Z,8.38
2018-03-19T07:29:40.033Z,6.85
2018-03-19T07:32:08.439Z,7.93
2018-03-19T07:34:36.840Z,9.98
2018-03-19T07:37:04.314Z,11.68
2018-03-19T07:39:31.842Z,9.18
2018-03-19T07:41:59.334Z,11.55
2018-03-19T07:44:26.806Z,10.82
2018-03-19T07:46:54.352Z,11.63
2018-03-19T07:49:21.866Z,10.90
2018-03-19T07:51:49.386Z,8.18
2018-03-19T07:54:17.674Z,11.68
2018-03-19T07:56:45.948Z,10.60
2018-03-19T07:59:14.308Z,11.18
2018-03-19T08:01:41.812Z,11.18
2018-03-19T08:04:09.301Z,12.82
2018-03-19T08:06:36.810Z,13.60
2018-03-19T08:09:05.117Z,9.77
2018-03-19T08:11:32.606Z,12.00
2018-03-19T08:14:00.094Z,13.25
2018-03-19T08:16:27.592Z,9.98
2018-03-19T08:18:55.078Z,12.75
2018-03-19T08:21:22.551Z,10.32
2018-03-19T08:23:50.086Z,12.00
2018-03-19T08:26:17.634Z,10.50
2018-03-19T08:31:19.755Z,10.63
2018-03-19T08:33:47.255Z,13.73
2018-03-19T08:36:14.759Z,11.45
2018-03-19T08:38:42.245Z,13.23
2018-03-19T08:41:10.497Z,10.93
2018-03-19T08:43:38.031Z,12.60
2018-03-19T08:46:05.504Z,13.05
2018-03-19T08:48:33.006Z,11.63
2018-03-19T08:51:01.283Z,18.50
2018-03-19T08:53:29.542Z,14.38
2018-03-19T08:55:57.020Z,12.65
2018-03-19T08:58:25.283Z,10.25
2018-03-19T09:00:53.554Z,14.27
2018-03-19T09:03:21.032Z,10.43
2018-03-19T09:05:49.283Z,9.18
2018-03-19T09:08:16.814Z,12.18
2018-03-19T09:10:44.302Z,12.52
2018-03-19T09:13:11.770Z,11.77
2018-03-19T09:15:40.054Z,11.15
2018-03-19T09:18:08.316Z,13.10
2018-03-19T09:20:36.557Z,9.95
2018-03-19T09:23:04.070Z,11.07
2018-03-19T09:25:32.322Z,12.63
2018-03-19T09:27:59.838Z,12.60
2018-03-19T09:30:27.381Z,11.18
2018-03-19T09:32:54.866Z,12.18
2018-03-19T09:35:22.354Z,12.45
2018-03-19T09:37:49.857Z,13.68
2018-03-19T09:40:17.338Z,10.52
2018-03-19T09:42:44.833Z,13.68
2018-03-19T09:45:13.107Z,10.05
2018-03-19T09:47:40.586Z,12.18
2018-03-19T09:50:08.827Z,16.25
2018-03-19T09:52:36.313Z,13.65
2018-03-19T09:55:04.566Z,15.95
2018-03-19T09:57:32.048Z,18.27
2018-03-19T10:00:00.309Z,19.83
2018-03-19T10:02:27.778Z,12.45
2018-03-19T10:04:56.022Z,19.02
2018-03-19T10:07:23.511Z,17.90
2018-03-19T10:09:51.774Z,13.68
2018-03-19T10:12:19.246Z,13.50
2018-03-19T10:14:47.523Z,13.05
2018-03-19T10:17:15.782Z,15.13
2018-03-19T10:19:43.254Z,11.30
2018-03-19T10:22:11.530Z,12.63
2018-03-19T10:24:39.770Z,17.00
2018-03-19T10:27:07.254Z,9.48
2018-03-19T10:29:35.529Z,14.65
2018-03-19T10:32:03.058Z,13.38
2018-03-19T10:34:30.549Z,13.30
2018-03-19T10:36:58.798Z,11.00
2018-03-19T10:39:26.281Z,20.17
2018-03-19T10:41:54.546Z,13.55
2018-03-19T10:44:22.059Z,11.98
2018-03-19T10:46:49.543Z,18.77
2018-03-19T10:49:17.022Z,22.85
2018-03-19T10:51:44.518Z,14.60
2018-03-19T10:54:11.990Z,10.40
2018-03-19T10:56:39.474Z,10.75
2018-03-19T10:59:07.940Z,14.00
2018-03-19T11:01:41.194Z,16.17
2018-03-19T11:04:14.075Z,15.13
2018-03-19T11:09:45.114Z,13.25
2018-03-19T11:12:12.748Z,14.98
2018-03-19T11:14:40.933Z,16.55
2018-03-19T11:17:08.419Z,14.48
2018-03-19T11:19:35.933Z,16.70
2018-03-19T11:22:03.427Z,17.33
2018-03-19T11:24:30.910Z,15.05
2018-03-19T11:26:59.177Z,18.10
2018-03-19T11:29:27.430Z,14.15
2018-03-19T11:31:54.911Z,17.48
2018-03-19T11:34:23.190Z,18.42
2018-03-19T11:36:51.438Z,15.07
2018-03-19T11:39:18.935Z,14.73
2018-03-19T11:41:47.246Z,14.40
2018-03-19T11:44:15.465Z,14.43
2018-03-19T11:46:42.940Z,14.82
2018-03-19T11:49:11.190Z,17.10
2018-03-19T11:51:38.679Z,18.45
2018-03-19T11:54:06.947Z,12.32
2018-03-19T11:56:35.231Z,16.45
2018-03-19T11:59:03.487Z,14.20
2018-03-19T12:01:30.963Z,16.55
2018-03-19T12:03:59.250Z,14.70
2018-03-19T12:06:27.562Z,15.02
2018-03-19T12:08:55.046Z,15.90
2018-03-19T12:11:22.538Z,19.98
2018-03-19T12:13:50.781Z,15.48
2018-03-19T12:16:18.266Z,17.52
2018-03-19T12:18:46.554Z,15.75
2018-03-19T12:21:14.835Z,19.37
2018-03-19T12:23:42.311Z,15.57
2018-03-19T12:26:09.801Z,17.17
2018-03-19T12:28:37.282Z,15.38
2018-03-19T12:31:04.775Z,13.90
2018-03-19T12:33:32.279Z,15.50
2018-03-19T12:35:59.797Z,15.75
2018-03-19T12:38:27.270Z,15.68
2018-03-19T12:40:54.770Z,15.95
2018-03-19T12:43:23.109Z,16.83
2018-03-19T12:45:50.604Z,17.10
2018-03-19T12:48:18.143Z,16.42
2018-03-19T12:50:45.634Z,21.95
2018-03-19T12:53:13.115Z,16.02
2018-03-19T12:55:40.620Z,16.90
2018-03-19T12:58:08.111Z,20.10
2018-03-19T13:00:36.371Z,18.65
2018-03-19T13:03:05.370Z,17.80
2018-03-19T13:05:32.856Z,16.42
2018-03-19T13:08:01.142Z,14.98
2018-03-19T13:10:28.658Z,20.62
2018-03-19T13:12:56.234Z,20.15
2018-03-19T13:15:23.670Z,16.98
2018-03-19T13:17:51.165Z,13.57
2018-03-19T13:20:19.515Z,16.48
2018-03-19T13:22:46.999Z,15.48
2018-03-19T13:25:15.290Z,16.67
2018-03-19T13:27:42.774Z,17.35
2018-03-19T13:30:10.353Z,21.33
2018-03-19T13:32:37.848Z,24.50
2018-03-19T13:35:06.094Z,26.00
2018-03-19T13:37:33.600Z,19.60
2018-03-19T13:40:01.192Z,16.80
2018-03-19T13:42:28.573Z,20.10
2018-03-19T13:44:56.098Z,17.17
2018-03-19T13:47:23.677Z,19.15
2018-03-19T13:49:51.158Z,15.57
2018-03-19T13:52:18.669Z,15.77
2018-03-19T13:54:46.176Z,21.75
2018-03-19T13:57:13.662Z,16.90
2018-03-19T13:59:41.993Z,20.33
2018-03-19T14:02:09.490Z,16.13
2018-03-19T14:04:37.734Z,18.13
2018-03-19T14:07:05.235Z,14.67
2018-03-19T14:09:32.758Z,14.33
2018-03-19T14:12:00.246Z,19.20
2018-03-19T14:14:28.492Z,19.53
2018-03-19T14:16:55.987Z,14.10
2018-03-19T14:19:23.478Z,18.10
2018-03-19T14:21:50.958Z,13.93
2018-03-19T14:24:18.486Z,15.87
2018-03-19T14:26:45.970Z,17.20
2018-03-19T14:29:13.495Z,16.33
2018-03-19T14:31:41.017Z,18.10
2018-03-19T14:34:09.341Z,17.33
2018-03-19T14:36:36.833Z,16.10
2018-03-19T14:39:04.321Z,15.10
2018-03-19T14:41:32.602Z,17.40
2018-03-19T14:44:00.858Z,20.10
2018-03-19T14:46:28.338Z,15.77
2018-03-19T14:48:55.845Z,16.17
2018-03-19T14:51:23.342Z,18.40
2018-03-19T14:53:51.593Z,16.80
2018-03-19T14:56:19.093Z,15.47
2018-03-19T14:58:46.589Z,17.47
2018-03-19T15:01:14.869Z,17.03
2018-03-19T15:03:42.378Z,15.07
2018-03-19T15:06:09.862Z,17.60
2018-03-19T15:08:37.355Z,18.27
2018-03-19T15:11:04.868Z,13.00
2018-03-19T15:13:32.364Z,16.93
2018-03-19T15:15:59.850Z,22.70
2018-03-19T15:18:28.145Z,15.20
2018-03-19T15:20:55.634Z,16.93
2018-03-19T15:23:23.133Z,19.27
2018-03-19T15:25:50.679Z,21.00
2018-03-19T15:28:18.239Z,17.33
2018-03-19T15:30:45.734Z,18.23
2018-03-19T15:33:13.249Z,16.50
2018-03-19T15:35:40.743Z,15.60
2018-03-19T15:38:09.019Z,13.10
2018-03-19T15:40:37.398Z,14.40
2018-03-19T15:43:05.654Z,15.90
2018-03-19T15:45:33.158Z,18.60
2018-03-19T15:48:00.646Z,22.30
2018-03-19T15:50:28.155Z,14.47
2018-03-19T15:52:56.522Z,16.10
2018-03-19T15:55:24.778Z,14.60
2018-03-19T15:57:52.279Z,15.87
2018-03-19T16:00:19.798Z,16.87
2018-03-19T16:02:47.387Z,14.17
2018-03-19T16:05:15.634Z,19.47
2018-03-19T16:07:43.191Z,17.63
2018-03-19T16:10:10.686Z,16.27
2018-03-19T16:12:39.002Z,17.60
2018-03-19T16:15:06.574Z,16.95
2018-03-19T16:17:34.076Z,18.90
2018-03-19T16:20:01.570Z,16.02
2018-03-19T16:22:29.190Z,19.23
2018-03-19T16:24:57.472Z,17.23
2018-03-19T16:27:25.037Z,15.85
2018-03-19T16:29:52.525Z,17.65
2018-03-19T16:32:20.143Z,14.43
2018-03-19T16:34:47.730Z,16.08
2018-03-19T16:37:15.220Z,12.77
2018-03-19T16:39:42.722Z,13.70
2018-03-19T16:42:11.081Z,16.35
2018-03-19T16:44:39.290Z,20.35
2018-03-19T16:47:06.789Z,17.08
2018-03-19T16:49:34.346Z,17.50
2018-03-19T16:52:02.649Z,17.62
2018-03-19T16:54:30.215Z,12.15
2018-03-19T16:56:58.490Z,14.27
2018-03-19T16:59:26.015Z,11.70
2018-03-19T17:01:53.579Z,18.10
2018-03-19T17:04:21.182Z,16.30
2018-03-19T17:06:49.499Z,14.32
2018-03-19T17:09:17.159Z,20.90
2018-03-19T17:11:44.723Z,15.65
2018-03-19T17:14:12.315Z,14.45
2018-03-19T17:16:39.834Z,11.32
2018-03-19T17:19:07.499Z,11.25
2018-03-19T17:21:35.035Z,11.95
2018-03-19T17:24:03.372Z,16.15
2018-03-19T17:26:31.051Z,14.90
2018-03-19T17:28:58.619Z,16.73
2018-03-19T17:31:26.935Z,14.13
2018-03-19T17:33:54.494Z,10.10
2018-03-19T17:36:22.062Z,14.05
2018-03-19T17:38:49.610Z,13.52
2018-03-19T17:41:17.272Z,12.48
2018-03-19T17:43:44.758Z,20.15
2018-03-19T17:46:12.343Z,17.77
2018-03-19T17:48:40.726Z,14.95
2018-03-19T17:51:08.275Z,14.30
2018-03-19T17:53:36.655Z,12.63
2018-03-19T17:56:05.192Z,12.55
2018-03-19T17:58:32.751Z,12.95
2018-03-19T18:01:00.345Z,21.40
2018-03-19T18:03:27.922Z,12.75
2018-03-19T18:05:56.361Z,33.63
2018-03-19T18:08:23.923Z,18.05
2018-03-19T18:10:51.418Z,12.70
2018-03-19T18:13:18.963Z,10.95
2018-03-19T18:15:46.531Z,8.63
2018-03-19T18:18:14.116Z,13.55
2018-03-19T18:20:41.629Z,14.13
2018-03-19T18:23:09.203Z,18.17
2018-03-19T18:25:36.732Z,17.60
2018-03-19T18:28:04.280Z,15.32
2018-03-19T18:30:31.766Z,12.50
2018-03-19T18:33:00.426Z,9.23
2018-03-19T18:35:27.970Z,9.23
2018-03-19T18:37:56.238Z,10.20
2018-03-19T18:40:24.514Z,15.13
2018-03-19T18:42:52.762Z,14.35
2018-03-19T18:45:20.274Z,22.40
2018-03-19T18:47:47.916Z,17.62
2018-03-19T18:50:15.434Z,14.02
2018-03-19T18:52:42.916Z,9.88
2018-03-19T18:55:10.466Z,9.90
2018-03-19T18:57:38.000Z,10.10
2018-03-19T19:00:05.688Z,14.85
2018-03-19T19:02:33.965Z,19.83
2018-03-19T19:05:01.507Z,26.67
2018-03-19T19:07:29.021Z,12.32
2018-03-19T19:09:57.371Z,11.07
2018-03-19T19:12:24.937Z,13.85
2018-03-19T19:14:52.476Z,9.30
2018-03-19T19:17:19.995Z,12.37
2018-03-19T19:19:47.663Z,9.93
2018-03-19T19:22:15.195Z,9.27
2018-03-19T19:24:43.564Z,14.52
2018-03-19T19:27:11.883Z,8.85
2018-03-19T19:29:39.484Z,9.82
2018-03-19T19:32:07.058Z,12.75
2018-03-19T19:34:35.453Z,8.65
2018-03-19T19:37:03.881Z,12.32
2018-03-19T19:39:31.455Z,13.00
2018-03-19T19:41:59.881Z,10.60
2018-03-19T19:44:27.474Z,10.48
2018-03-19T19:46:55.352Z,9.23
2018-03-19T19:49:23.674Z,11.00
2018-03-19T19:51:52.089Z,10.73
2018-03-19T19:54:19.719Z,11.80
2018-03-19T19:56:47.424Z,16.60
2018-03-19T19:59:15.027Z,11.02
2018-03-19T20:01:42.601Z,10.52
2018-03-19T20:04:10.957Z,11.88
2018-03-19T20:06:38.434Z,15.35
2018-03-19T20:09:06.745Z,11.98
2018-03-19T20:11:34.320Z,11.40
2018-03-19T20:14:01.842Z,12.02
2018-03-19T20:16:30.180Z,9.15
2018-03-19T20:18:57.923Z,9.50
2018-03-19T20:21:26.254Z,12.15
2018-03-19T20:23:54.676Z,8.98
2018-03-19T20:26:23.258Z,13.38
2018-03-19T20:28:51.764Z,18.55
2018-03-19T20:31:19.246Z,9.23
2018-03-19T20:33:46.795Z,10.27
2018-03-19T20:36:14.315Z,11.95
2018-03-19T20:38:41.828Z,13.07
2018-03-19T20:41:10.182Z,11.50
2018-03-19T20:43:37.756Z,12.85
2018-03-19T20:46:05.286Z,9.23
2018-03-19T20:48:32.795Z,9.73
2018-03-19T20:51:01.354Z,9.70
2018-03-19T20:53:28.863Z,9.73
2018-03-19T20:55:56.432Z,10.48
2018-03-19T20:58:23.918Z,9.43
2018-03-19T21:00:51.438Z,8.43
2018-03-19T21:03:18.966Z,7.70
2018-03-19T21:05:46.496Z,8.20
2018-03-19T21:08:14.863Z,8.10
2018-03-19T21:10:43.255Z,10.20
2018-03-19T21:13:10.802Z,6.43
2018-03-19T21:15:38.372Z,8.55
2018-03-19T21:18:05.900Z,10.27
2018-03-19T21:20:33.405Z,6.90
2018-03-19T21:23:00.902Z,6.00
2018-03-19T21:25:28.485Z,9.07
2018-03-19T21:27:55.999Z,7.35
2018-03-19T21:30:24.272Z,6.22
2018-03-19T21:32:51.802Z,7.28
2018-03-19T21:35:19.451Z,6.72
2018-03-19T21:37:47.029Z,7.45
2018-03-19T21:40:14.599Z,15.40
2018-03-19T21:42:43.037Z,7.03
2018-03-19T21:45:10.627Z,7.25
2018-03-19T21:47:38.122Z,9.20
2018-03-19T21:50:06.452Z,8.38
2018-03-19T21:52:34.035Z,7.93
2018-03-19T21:55:01.575Z,7.80
2018-03-19T21:57:29.156Z,6.60
2018-03-19T21:59:57.537Z,5.85
2018-03-19T22:02:25.102Z,8.00
2018-03-19T22:04:52.622Z,8.02
2018-03-19T22:07:20.150Z,9.18
2018-03-19T22:09:48.448Z,8.18
2018-03-19T22:12:15.995Z,6.70
2018-03-19T22:14:43.515Z,5.87
2018-03-19T22:17:11.147Z,9.90
2018-03-19T22:19:39.843Z,6.95
2018-03-19T22:22:08.802Z,7.35
2018-03-19T22:24:38.698Z,5.75
2018-03-19T22:30:21.806Z,6.47
2018-03-19T22:32:49.339Z,9.63
2018-03-19T22:35:22.276Z,7.70
2018-03-19T22:37:57.242Z,7.30
2018-03-19T22:40:25.255Z,6.30
2018-03-19T22:42:52.830Z,8.05
2018-03-19T22:45:22.786Z,6.80
2018-03-19T22:47:50.631Z,6.70
2018-03-19T22:50:23.158Z,8.10
2018-03-19T22:52:52.511Z,8.63
2018-03-19T22:55:31.934Z,10.98
2018-03-19T22:58:14.321Z,7.28
2018-03-19T23:00:41.901Z,6.75
2018-03-19T23:03:10.692Z,7.32
2018-03-19T23:05:47.841Z,10.10
2018-03-19T23:08:24.801Z,10.90
2018-03-19T23:10:57.230Z,7.00
2018-03-19T23:13:24.914Z,7.10
2018-03-19T23:15:52.396Z,7.70
2018-03-19T23:18:19.878Z,9.48
2018-03-19T23:20:47.414Z,7.78
2018-03-19T23:23:15.128Z,6.72
2018-03-19T23:25:43.751Z,9.02
2018-03-19T23:28:11.624Z,9.45
2018-03-19T23:30:39.155Z,8.50
2018-03-19T23:33:07.431Z,7.53
2018-03-19T23:35:35.738Z,8.52
2018-03-19T23:38:03.382Z,8.77
2018-03-19T23:40:31.054Z,8.85
2018-03-19T23:42:58.688Z,6.78
2018-03-19T23:45:26.202Z,13.18
2018-03-19T23:47:53.703Z,9.70
2018-03-19T23:50:22.065Z,9.07
2018-03-19T23:52:50.358Z,6.65
2018-03-19T23:55:18.758Z,9.60
2018-03-19T23:57:47.143Z,9.73
